createdAt,value
2022-12-19T00:00:00.271Z,97261.97
2022-12-19T00:02:33.805Z,97266.22
2022-12-19T00:05:08.047Z,97271.25
2022-12-19T00:07:42.287Z,97273.38
2022-12-19T00:10:15.338Z,97280.25
2022-12-19T00:12:48.163Z,97260.94
2022-12-19T00:15:20.956Z,97264.13
2022-12-19T00:17:53.739Z,97264.66
2022-12-19T00:20:26.826Z,97251.44
2022-12-19T00:23:00.964Z,97241.66
2022-12-19T00:25:33.830Z,97251.19
2022-12-19T00:28:08.197Z,97244.84
2022-12-19T00:30:41.014Z,97250.91
2022-12-19T00:33:14.134Z,97234.25
2022-12-19T00:35:46.987Z,97241.69
2022-12-19T00:38:21.208Z,97242.47
2022-12-19T00:40:54.096Z,97248.56
2022-12-19T00:43:26.904Z,97247.47
2022-12-19T00:46:00.031Z,97255.16
2022-12-19T00:48:33.050Z,97259.66
2022-12-19T00:51:08.766Z,97250.66
2022-12-19T00:53:44.620Z,97262.31
2022-12-19T00:56:19.368Z,97259.41
2022-12-19T00:58:53.917Z,97251.72
2022-12-19T01:01:28.754Z,97249.84
2022-12-19T01:06:59.775Z,97254.56
2022-12-19T01:09:38.132Z,97254.84
2022-12-19T01:12:29.488Z,97251.13
2022-12-19T01:15:04.207Z,97241.84
2022-12-19T01:17:43.980Z,97232.88
2022-12-19T01:20:29.183Z,97237.13
2022-12-19T01:23:02.955Z,97229.19
2022-12-19T01:25:39.116Z,97230.25
2022-12-19T01:28:16.717Z,97228.13
2022-12-19T01:30:51.503Z,97222.34
2022-12-19T01:33:25.099Z,97240.84
2022-12-19T01:35:57.972Z,97243.78
2022-12-19T01:38:31.186Z,97231.63
2022-12-19T01:41:06.024Z,97235.09
2022-12-19T01:43:58.424Z,97227.41
2022-12-19T01:46:36.394Z,97218.97
2022-12-19T01:49:15.706Z,97222.94
2022-12-19T01:51:53.168Z,97232.19
2022-12-19T01:54:30.813Z,97243.03
2022-12-19T01:57:09.248Z,97244.09
2022-12-19T01:59:45.245Z,97242.00
2022-12-19T02:02:23.905Z,97249.94
2022-12-19T02:04:57.154Z,97250.19
2022-12-19T02:07:30.806Z,97248.84
2022-12-19T02:10:04.048Z,97243.31
2022-12-19T02:12:42.381Z,97237.72
2022-12-19T02:15:18.299Z,97239.31
2022-12-19T02:18:08.719Z,97232.69
2022-12-19T02:21:24.034Z,97230.06
2022-12-19T02:24:22.287Z,97208.59
2022-12-19T02:27:04.148Z,97208.88
2022-12-19T02:29:54.654Z,97214.41
2022-12-19T02:32:36.132Z,97214.94
2022-12-19T02:35:15.876Z,97219.97
2022-12-19T02:37:53.988Z,97225.00
2022-12-19T02:40:31.123Z,97226.88
2022-12-19T02:43:06.020Z,97225.31
2022-12-19T02:45:41.046Z,97230.84
2022-12-19T02:48:19.330Z,97237.47
2022-12-19T02:50:52.508Z,97230.63
2022-12-19T02:53:25.345Z,97237.22
2022-12-19T02:56:12.437Z,97239.34
2022-12-19T02:59:02.134Z,97227.44
2022-12-19T03:01:45.433Z,97241.72
2022-12-19T03:04:33.382Z,97228.50
2022-12-19T03:07:19.431Z,97237.50
2022-12-19T03:09:58.427Z,97243.31
2022-12-19T03:12:37.127Z,97249.69
2022-12-19T03:15:10.557Z,97258.69
2022-12-19T03:17:43.850Z,97253.91
2022-12-19T03:20:25.431Z,97255.78
2022-12-19T03:22:58.280Z,97253.94
2022-12-19T03:25:32.083Z,97268.50
2022-12-19T03:28:12.010Z,97241.75
2022-12-19T03:30:47.629Z,97232.22
2022-12-19T03:33:23.453Z,97224.28
2022-12-19T03:36:00.547Z,97234.09
2022-12-19T03:38:35.439Z,97237.50
2022-12-19T03:41:12.078Z,97248.63
2022-12-19T03:43:45.860Z,97234.88
2022-12-19T03:46:25.760Z,97242.81
2022-12-19T03:48:58.718Z,97245.47
2022-12-19T03:51:39.550Z,97232.72
2022-12-19T03:54:19.131Z,97235.38
2022-12-19T03:56:59.281Z,97235.38
2022-12-19T03:59:37.145Z,97222.69
2022-12-19T04:02:11.761Z,97222.94
2022-12-19T04:04:47.899Z,97220.84
2022-12-19T04:07:24.324Z,97205.22
2022-12-19T04:10:00.244Z,97216.34
2022-12-19T04:12:38.509Z,97218.72
2022-12-19T04:15:12.133Z,97219.25
2022-12-19T04:17:49.417Z,97226.94
2022-12-19T04:20:25.647Z,97229.03
2022-12-19T04:23:04.195Z,97225.34
2022-12-19T04:25:40.270Z,97223.47
2022-12-19T04:28:18.551Z,97215.53
2022-12-19T04:30:52.227Z,97219.25
2022-12-19T04:33:25.079Z,97210.25
2022-12-19T04:35:58.162Z,97219.00
2022-12-19T04:38:33.154Z,97215.81
2022-12-19T04:41:06.132Z,97206.03
2022-12-19T04:43:39.361Z,97212.63
2022-12-19T04:46:12.229Z,97205.22
2022-12-19T04:48:45.159Z,97213.72
2022-12-19T04:51:17.975Z,97211.59
2022-12-19T04:53:52.262Z,97204.16
2022-12-19T04:56:25.519Z,97206.81
2022-12-19T04:58:59.085Z,97208.66
2022-12-19T05:01:32.353Z,97203.66
2022-12-19T05:04:06.456Z,97202.84
2022-12-19T05:06:40.056Z,97204.16
2022-12-19T05:09:14.632Z,97198.09
2022-12-19T05:11:47.671Z,97188.56
2022-12-19T05:14:21.325Z,97189.88
2022-12-19T05:17:00.370Z,97195.44
2022-12-19T05:19:34.391Z,97202.59
2022-12-19T05:22:07.694Z,97194.09
2022-12-19T05:24:42.059Z,97200.19
2022-12-19T05:27:15.063Z,97192.00
2022-12-19T05:29:49.556Z,97197.28
2022-12-19T05:32:22.413Z,97187.22
2022-12-19T05:34:55.437Z,97192.53
2022-12-19T05:37:28.669Z,97186.44
2022-12-19T05:40:03.021Z,97191.47
2022-12-19T05:42:36.020Z,97183.00
2022-12-19T05:45:09.847Z,97194.13
2022-12-19T05:47:43.953Z,97194.66
2022-12-19T05:50:17.714Z,97192.81
2022-12-19T05:52:50.808Z,97190.41
2022-12-19T05:55:25.387Z,97189.34
2022-12-19T05:57:58.307Z,97188.56
2022-12-19T06:00:31.957Z,97195.97
2022-12-19T06:03:05.233Z,97189.34
2022-12-19T06:05:40.103Z,97198.09
2022-12-19T06:08:13.129Z,97198.09
2022-12-19T06:10:47.678Z,97198.88
2022-12-19T06:13:24.912Z,97198.88
2022-12-19T06:16:00.095Z,97192.53
2022-12-19T06:18:33.344Z,97195.16
2022-12-19T06:21:08.607Z,97191.72
2022-12-19T06:23:41.968Z,97190.41
2022-12-19T06:26:20.151Z,97202.31
2022-12-19T06:28:55.863Z,97199.13
2022-12-19T06:31:29.318Z,97197.81
2022-12-19T06:34:02.499Z,97200.72
2022-12-19T06:36:36.056Z,97201.00
2022-12-19T06:39:09.043Z,97207.84
2022-12-19T06:42:01.096Z,97206.28
2022-12-19T06:44:34.277Z,97204.16
2022-12-19T06:47:07.313Z,97206.00
2022-12-19T06:49:40.393Z,97208.13
2022-12-19T06:52:13.516Z,97207.63
2022-12-19T06:54:46.919Z,97198.88
2022-12-19T06:57:21.939Z,97203.66
2022-12-19T06:59:55.022Z,97193.06
2022-12-19T07:02:31.256Z,97187.22
2022-12-19T07:05:07.311Z,97191.47
2022-12-19T07:07:41.318Z,97180.06
2022-12-19T07:10:14.266Z,97183.00
2022-12-19T07:12:48.697Z,97181.41
2022-12-19T07:15:22.055Z,97181.41
2022-12-19T07:17:55.460Z,97186.97
2022-12-19T07:20:30.642Z,97197.03
2022-12-19T07:23:04.714Z,97195.44
2022-12-19T07:25:39.465Z,97184.34
2022-12-19T07:28:14.437Z,97182.47
2022-12-19T07:30:47.305Z,97193.84
2022-12-19T07:33:22.947Z,97190.94
2022-12-19T07:35:55.855Z,97197.81
2022-12-19T07:38:28.758Z,97197.81
2022-12-19T07:41:02.331Z,97189.34
2022-12-19T07:43:36.673Z,97183.53
2022-12-19T07:46:09.796Z,97191.72
2022-12-19T07:48:43.055Z,97179.28
2022-12-19T07:51:16.053Z,97185.13
2022-12-19T07:53:49.188Z,97188.53
2022-12-19T07:56:22.247Z,97201.28
2022-12-19T07:58:56.837Z,97201.53
2022-12-19T08:01:30.085Z,97204.19
2022-12-19T08:04:03.360Z,97201.25
2022-12-19T08:06:40.854Z,97205.50
2022-12-19T08:09:14.943Z,97197.31
2022-12-19T08:11:47.963Z,97202.31
2022-12-19T08:14:22.809Z,97208.94
2022-12-19T08:17:19.896Z,97203.09
2022-12-19T08:19:48.556Z,97212.13
2022-12-19T08:22:21.337Z,97213.44
2022-12-19T08:24:54.257Z,97205.22
2022-12-19T08:27:27.691Z,97206.56
2022-12-19T08:30:02.167Z,97204.19
2022-12-19T08:32:35.058Z,97214.50
2022-12-19T08:35:09.008Z,97226.41
2022-12-19T08:37:42.270Z,97231.44
2022-12-19T08:40:15.963Z,97228.28
2022-12-19T08:42:48.762Z,97221.63
2022-12-19T08:45:23.235Z,97227.47
2022-12-19T08:47:56.841Z,97223.75
2022-12-19T08:50:29.639Z,97219.78
2022-12-19T08:53:02.512Z,97215.28
2022-12-19T08:55:36.853Z,97198.84
2022-12-19T08:58:09.756Z,97194.34
2022-12-19T09:00:46.523Z,97189.84
2022-12-19T09:03:34.073Z,97186.94
2022-12-19T09:06:20.228Z,97190.13
2022-12-19T09:08:53.900Z,97185.59
2022-12-19T09:11:33.347Z,97188.00
2022-12-19T09:14:08.944Z,97186.66
2022-12-19T09:16:43.115Z,97182.69
2022-12-19T09:19:16.647Z,97179.22
2022-12-19T09:21:49.394Z,97187.72
2022-12-19T09:24:22.163Z,97200.69
2022-12-19T09:26:55.010Z,97207.59
2022-12-19T09:29:32.205Z,97203.59
2022-12-19T09:32:09.516Z,97204.66
2022-12-19T09:34:42.367Z,97213.91
2022-12-19T09:37:17.697Z,97213.38
2022-12-19T09:39:51.074Z,97207.28
2022-12-19T09:42:51.595Z,97209.63
2022-12-19T09:45:38.606Z,97208.06
2022-12-19T09:48:23.602Z,97201.69
2022-12-19T09:51:10.220Z,97197.72
2022-12-19T09:53:58.346Z,97201.13
2022-12-19T09:56:46.007Z,97201.66
2022-12-19T09:59:39.709Z,97193.41
2022-12-19T10:02:28.241Z,97195.00
2022-12-19T10:05:34.838Z,97199.22
2022-12-19T10:08:09.683Z,97200.75
2022-12-19T10:12:39.116Z,97209.75
2022-12-19T10:13:57.346Z,97205.47
2022-12-19T10:16:56.321Z,97206.75
2022-12-19T10:19:46.903Z,97189.69
2022-12-19T10:22:29.327Z,97199.75
2022-12-19T10:25:18.841Z,97194.13
2022-12-19T10:27:59.158Z,97188.22
2022-12-19T10:30:36.935Z,97181.53
2022-12-19T10:33:20.673Z,97178.53
2022-12-19T10:35:56.384Z,97173.66
2022-12-19T10:38:50.320Z,97160.78
2022-12-19T10:41:27.010Z,97159.09
2022-12-19T10:44:05.720Z,97164.31
2022-12-19T10:46:41.191Z,97150.97
2022-12-19T10:49:17.290Z,97152.81
2022-12-19T10:52:00.849Z,97155.13
2022-12-19T10:54:44.100Z,97140.47
2022-12-19T10:57:25.802Z,97141.50
2022-12-19T11:00:00.605Z,97149.19
2022-12-19T11:02:44.776Z,97149.41
2022-12-19T11:05:27.592Z,97145.41
2022-12-19T11:08:03.319Z,97138.19
2022-12-19T11:11:04.287Z,97130.47
2022-12-19T11:20:30.689Z,97128.59
2022-12-19T11:23:32.790Z,97128.59
2022-12-19T11:29:17.028Z,97130.97
2022-12-19T11:29:30.356Z,97126.19
2022-12-19T11:29:55.166Z,97125.66
2022-12-19T11:30:48.000Z,97129.13
2022-12-19T11:34:18.698Z,97120.28
2022-12-19T11:36:56.937Z,97112.25
2022-12-19T11:39:36.454Z,97109.78
2022-12-19T11:42:16.672Z,97103.63
2022-12-19T11:44:57.177Z,97111.53
2022-12-19T11:47:38.068Z,97101.91
2022-12-19T11:50:16.479Z,97104.78
2022-12-19T11:53:12.992Z,97100.19
2022-12-19T11:55:54.114Z,97104.66
2022-12-19T11:58:29.973Z,97106.75
2022-12-19T12:01:15.538Z,97103.25
2022-12-19T12:04:09.049Z,97096.00
2022-12-19T12:06:49.141Z,97095.41
2022-12-19T12:14:52.161Z,97091.09
2022-12-19T12:19:27.933Z,97089.72
2022-12-19T12:30:53.667Z,97081.94
2022-12-19T12:31:17.721Z,97089.06
2022-12-19T12:31:38.743Z,97078.75
2022-12-19T12:31:54.115Z,97080.25
2022-12-19T12:31:58.103Z,97088.19
2022-12-19T12:31:58.825Z,97079.63
2022-12-19T12:35:32.769Z,97080.97
2022-12-19T12:38:12.271Z,97072.09
2022-12-19T12:40:23.624Z,97066.72
2022-12-19T12:43:08.196Z,97068.56
2022-12-19T12:45:43.211Z,97070.91
2022-12-19T12:48:24.638Z,97074.88
2022-12-19T12:51:01.349Z,97065.81
2022-12-19T12:53:38.230Z,97074.59
2022-12-19T12:56:13.987Z,97069.84
2022-12-19T12:59:06.344Z,97072.03
2022-12-19T13:01:42.219Z,97074.47
2022-12-19T13:04:25.294Z,97069.72
2022-12-19T13:07:16.425Z,97057.28
2022-12-19T13:09:55.643Z,97056.59
2022-12-19T13:12:46.899Z,97054.56
2022-12-19T13:15:37.049Z,97046.91
2022-12-19T13:18:38.765Z,97045.91
2022-12-19T13:21:11.585Z,97051.78
2022-12-19T13:23:48.572Z,97044.31
2022-12-19T13:26:38.968Z,97043.53
2022-12-19T13:29:29.732Z,97034.47
2022-12-19T13:32:14.429Z,97042.72
2022-12-19T13:35:02.825Z,97035.06
2022-12-19T13:39:51.095Z,97029.22
2022-12-19T13:40:57.344Z,97038.56
2022-12-19T13:43:47.969Z,97032.75
2022-12-19T13:46:32.296Z,97028.81
2022-12-19T13:49:08.292Z,97038.16
2022-12-19T13:51:48.107Z,97032.34
2022-12-19T13:54:23.995Z,97036.94
2022-12-19T13:56:58.254Z,97036.44
2022-12-19T13:59:38.937Z,97038.88
2022-12-19T14:02:19.075Z,97041.81
2022-12-19T14:04:52.478Z,97038.72
2022-12-19T14:07:37.427Z,97049.66
2022-12-19T14:11:44.168Z,97055.84
2022-12-19T14:13:44.688Z,97048.22
2022-12-19T14:16:34.719Z,97053.09
2022-12-19T14:19:20.887Z,97048.44
2022-12-19T14:22:05.492Z,97051.75
2022-12-19T14:24:55.289Z,97054.44
2022-12-19T14:28:20.710Z,97063.56
2022-12-19T14:30:52.648Z,97062.81
2022-12-19T14:33:45.140Z,97065.00
2022-12-19T14:36:29.238Z,97068.78
2022-12-19T14:39:23.899Z,97065.91
2022-12-19T14:42:20.401Z,97073.09
2022-12-19T14:51:09.062Z,97066.47
2022-12-19T14:53:10.880Z,97066.53
2022-12-19T14:54:29.062Z,97066.28
2022-12-19T14:56:08.664Z,97043.81
2022-12-19T14:58:50.472Z,97051.25
2022-12-19T15:01:10.369Z,97057.19
2022-12-19T15:03:21.321Z,97046.91
2022-12-19T15:06:19.750Z,97064.25
2022-12-19T15:10:59.006Z,97056.38
2022-12-19T15:14:46.784Z,97050.09
2022-12-19T15:15:22.883Z,97062.91
2022-12-19T15:17:56.773Z,97057.97
2022-12-19T15:20:29.671Z,97069.97
2022-12-19T15:23:04.149Z,97065.78
2022-12-19T15:26:02.874Z,97051.53
2022-12-19T15:28:37.801Z,97051.59
2022-12-19T15:31:26.969Z,97050.59
2022-12-19T15:34:32.858Z,97052.25
2022-12-19T15:36:54.014Z,97047.53
2022-12-19T15:39:30.524Z,97045.97
2022-12-19T15:42:03.950Z,97048.69
2022-12-19T15:44:39.115Z,97055.59
2022-12-19T15:47:18.365Z,97057.50
2022-12-19T15:49:51.281Z,97058.84
2022-12-19T15:52:25.718Z,97053.81
2022-12-19T15:54:59.927Z,97051.47
2022-12-19T15:57:36.430Z,97050.41
2022-12-19T16:00:18.501Z,97054.97
2022-12-19T16:05:46.031Z,97055.25
2022-12-19T16:08:22.844Z,97051.59
2022-12-19T16:11:01.718Z,97056.88
2022-12-19T16:13:36.161Z,97046.59
2022-12-19T16:16:15.829Z,97056.94
2022-12-19T16:18:49.497Z,97061.44
2022-12-19T16:21:31.574Z,97053.28
2022-12-19T16:24:07.251Z,97047.72
2022-12-19T16:26:41.849Z,97050.13
2022-12-19T16:29:20.159Z,97053.81
2022-12-19T16:31:53.101Z,97056.47
2022-12-19T16:34:28.937Z,97049.84
2022-12-19T16:37:01.999Z,97043.25
2022-12-19T16:39:34.970Z,97056.50
2022-12-19T16:42:15.671Z,97056.50
2022-12-19T16:44:49.319Z,97046.44
2022-12-19T16:47:22.871Z,97055.69
2022-12-19T16:49:55.813Z,97047.50
2022-12-19T16:52:28.890Z,97046.72
2022-12-19T16:55:02.036Z,97043.53
2022-12-19T16:57:36.480Z,97036.66
2022-12-19T17:00:16.134Z,97044.59
2022-12-19T17:02:51.590Z,97056.75
2022-12-19T17:05:26.585Z,97043.00
2022-12-19T17:08:00.119Z,97039.56
2022-12-19T17:10:35.120Z,97045.66
2022-12-19T17:13:14.093Z,97040.34
2022-12-19T17:15:52.624Z,97046.47
2022-12-19T17:18:31.874Z,97046.47
2022-12-19T17:21:04.838Z,97043.81
2022-12-19T17:23:37.675Z,97042.50
2022-12-19T17:26:17.298Z,97044.88
2022-12-19T17:28:52.146Z,97050.16
2022-12-19T17:31:29.085Z,97047.25
2022-12-19T17:34:02.215Z,97047.53
2022-12-19T17:36:37.863Z,97049.66
2022-12-19T17:39:20.236Z,97053.59
2022-12-19T17:41:54.261Z,97043.28
2022-12-19T17:44:28.771Z,97040.09
2022-12-19T17:47:01.747Z,97036.38
2022-12-19T17:49:36.000Z,97044.84
2022-12-19T17:52:14.633Z,97048.03
2022-12-19T17:54:47.951Z,97045.41
2022-12-19T17:57:20.807Z,97036.91
2022-12-19T17:59:55.012Z,97047.22
2022-12-19T18:02:28.693Z,97032.66
2022-12-19T18:05:01.799Z,97029.47
2022-12-19T18:07:34.678Z,97039.78
2022-12-19T18:10:16.044Z,97030.25
2022-12-19T18:12:49.017Z,97029.22
2022-12-19T18:15:24.691Z,97026.78
2022-12-19T18:17:58.825Z,97022.03
2022-12-19T18:20:33.754Z,97033.16
2022-12-19T18:23:15.344Z,97024.66
2022-12-19T18:25:49.095Z,97024.91
2022-12-19T18:28:22.006Z,97023.31
2022-12-19T18:31:01.289Z,97025.19
2022-12-19T18:33:39.273Z,97034.41
2022-12-19T18:36:19.768Z,97023.56
2022-12-19T18:38:55.093Z,97029.13
2022-12-19T18:41:28.048Z,97016.41
2022-12-19T18:44:00.907Z,97023.28
2022-12-19T18:46:35.910Z,97014.03
2022-12-19T18:49:13.697Z,97008.72
2022-12-19T18:51:46.664Z,97003.44
2022-12-19T18:54:21.634Z,97011.88
2022-12-19T18:56:54.472Z,97006.56
2022-12-19T18:59:27.728Z,97003.44
2022-12-19T19:02:02.222Z,97010.31
2022-12-19T19:04:35.312Z,97009.00
2022-12-19T19:07:11.190Z,97002.09
2022-12-19T19:09:44.057Z,97010.31
2022-12-19T19:12:17.865Z,97004.50
2022-12-19T19:14:50.717Z,97013.00
2022-12-19T19:17:30.522Z,97013.25
2022-12-19T19:20:04.135Z,97012.72
2022-12-19T19:22:36.937Z,97013.78
2022-12-19T19:25:10.613Z,97006.13
2022-12-19T19:27:43.534Z,97015.16
2022-12-19T19:30:16.810Z,97004.81
2022-12-19T19:32:55.235Z,97004.03
2022-12-19T19:35:28.702Z,97017.25
2022-12-19T19:38:06.651Z,97009.31
2022-12-19T19:40:39.717Z,97008.78
2022-12-19T19:43:12.819Z,97004.03
2022-12-19T19:45:46.870Z,96997.19
2022-12-19T19:48:21.370Z,96999.81
2022-12-19T19:50:54.389Z,96996.66
2022-12-19T19:53:27.389Z,97008.28
2022-12-19T19:56:01.962Z,97006.44
2022-12-19T19:58:34.930Z,96998.75
2022-12-19T20:01:09.332Z,96984.72
2022-12-19T20:03:44.858Z,96989.75
2022-12-19T20:06:19.285Z,96980.22
2022-12-19T20:08:52.238Z,96989.75
2022-12-19T20:11:25.094Z,96981.03
2022-12-19T20:13:58.055Z,96981.81
2022-12-19T20:16:32.248Z,96982.88
2022-12-19T20:19:08.778Z,96982.34
2022-12-19T20:21:41.777Z,96981.03
2022-12-19T20:24:14.682Z,96978.13
2022-12-19T20:26:47.798Z,96981.56
2022-12-19T20:29:20.755Z,96969.13
2022-12-19T20:31:53.891Z,96971.47
2022-12-19T20:34:28.147Z,96966.69
2022-12-19T20:37:01.085Z,96967.22
2022-12-19T20:39:34.464Z,96966.69
2022-12-19T20:42:09.496Z,96972.78
2022-12-19T20:44:42.376Z,96964.84
2022-12-19T20:47:15.722Z,96965.63
2022-12-19T20:49:50.014Z,96967.97
2022-12-19T20:52:22.889Z,96967.97
2022-12-19T20:54:55.751Z,96976.47
2022-12-19T20:57:30.437Z,96966.13
2022-12-19T21:00:03.496Z,96968.78
2022-12-19T21:02:59.946Z,96966.94
2022-12-19T21:05:30.533Z,96971.16
2022-12-19T21:08:03.489Z,96983.88
2022-12-19T21:10:37.313Z,96980.16
2022-12-19T21:13:10.332Z,96988.09
2022-12-19T21:15:43.335Z,96964.28
2022-12-19T21:18:16.468Z,96958.41
2022-12-19T21:20:51.105Z,96958.16
2022-12-19T21:23:25.366Z,96952.59
2022-12-19T21:25:59.839Z,96963.97
2022-12-19T21:28:33.416Z,96962.13
2022-12-19T21:31:08.968Z,96955.50
2022-12-19T21:33:41.861Z,96956.25
2022-12-19T21:36:20.231Z,96949.09
2022-12-19T21:38:55.568Z,96957.56
2022-12-19T21:41:29.522Z,96958.38
2022-12-19T21:44:02.455Z,96960.75
2022-12-19T21:46:35.357Z,96970.28
2022-12-19T21:49:08.741Z,96974.25
2022-12-19T21:51:43.008Z,96968.66
2022-12-19T21:54:16.102Z,96977.13
2022-12-19T21:56:49.211Z,96971.81
2022-12-19T21:59:22.156Z,96977.38
2022-12-19T22:01:55.151Z,96971.81
2022-12-19T22:04:28.625Z,96978.41
2022-12-19T22:07:05.660Z,96981.56
2022-12-19T22:09:38.521Z,96973.91
2022-12-19T22:12:14.017Z,96973.63
2022-12-19T22:14:46.937Z,96969.91
2022-12-19T22:17:19.899Z,96963.81
2022-12-19T22:19:52.773Z,96968.84
2022-12-19T22:22:26.975Z,96965.94
2022-12-19T22:25:00.145Z,96964.34
2022-12-19T22:27:33.108Z,96968.84
2022-12-19T22:30:11.129Z,96965.94
2022-12-19T22:32:44.312Z,96973.09
2022-12-19T22:35:17.826Z,96965.94
2022-12-19T22:37:52.120Z,96970.16
2022-12-19T22:40:24.989Z,96974.16
2022-12-19T22:42:57.893Z,96971.25
2022-12-19T22:45:31.744Z,96977.59
2022-12-19T22:48:04.776Z,96972.31
2022-12-19T22:50:37.743Z,96972.56
2022-12-19T22:53:13.068Z,96961.19
2022-12-19T22:55:46.080Z,96959.59
2022-12-19T22:58:18.932Z,96965.44
2022-12-19T23:00:51.868Z,96959.34
2022-12-19T23:03:24.826Z,96966.53
2022-12-19T23:05:57.885Z,96964.13
2022-12-19T23:08:32.436Z,96964.13
2022-12-19T23:11:05.853Z,96958.31
2022-12-19T23:13:38.745Z,96954.59
2022-12-19T23:16:13.306Z,96948.00
2022-12-19T23:18:46.314Z,96948.78
2022-12-19T23:21:21.454Z,96943.47
2022-12-19T23:23:57.142Z,96943.47
2022-12-19T23:26:32.674Z,96944.28
2022-12-19T23:29:07.950Z,96939.25
2022-12-19T23:31:42.876Z,96940.84
2022-12-19T23:34:16.453Z,96935.00
2022-12-19T23:39:43.414Z,96945.34
2022-12-19T23:42:16.192Z,96943.75
2022-12-19T23:44:51.411Z,96939.25
2022-12-19T23:47:24.234Z,96952.50
2022-12-19T23:49:57.097Z,96940.03
2022-12-19T23:52:30.098Z,96954.88
2022-12-19T23:55:05.339Z,96957.78
2022-12-19T23:57:38.291Z,96950.91
